VOTR

Tiruchirapally Civil Airport

Tiruchirappally, India
TAF VOTR 161700Z 1618/1724 23010G20KT 6000 FEW018 SCT100 BECMG 1621/1622 27010KT BECMG 1703/1704 27010G20KT TEMPO 1709/1718 SCT018 FEW025TCU/CB BKN100 BECMG 1721/1722 27010KT
Issued Valid From Valid To
Jul-16 @ 17:00 UTC
(3 hours ago)
Jul-16 @ 18:00 UTC
(2 hours ago)
Jul-18 @ 00:00 UTC
(-1 days ago)
Jul-16 @ 18:00 to Jul-16 @ 21:00
TAF VOTR 161700Z 1618/1724 23010G20KT 6000 FEW018 SCT100
Wind Visibility Clouds
230° at 10 knots
 Gusting to 20 knots
6,003 meters
  • Few at 1,800' AGL
  • Scattered at 10,000' AGL
Becoming Jul-16 @ 21:00 to Jul-17 @ 03:00
BECMG 1621/1622 27010KT
Wind Visibility Clouds
270° at 10 knots 6,003 meters
  • Few at 1,800' AGL
  • Scattered at 10,000' AGL
Becoming Jul-17 @ 03:00 to Jul-17 @ 21:00
BECMG 1703/1704 27010G20KT
Wind Visibility Clouds
270° at 10 knots
 Gusting to 20 knots
6,003 meters
  • Few at 1,800' AGL
  • Scattered at 10,000' AGL
Temporary Jul-17 @ 09:00 to Jul-17 @ 18:00
TEMPO 1709/1718 SCT018 FEW025TCU/CB BKN100
Clouds
  • Scattered at 1,800' AGL
  • Broken at 10,000' AGL
Becoming Jul-17 @ 21:00 to Jul-18 @ 00:00
BECMG 1721/1722 27010KT
Wind Visibility Clouds
270° at 10 knots 6,003 meters
  • Few at 1,800' AGL
  • Scattered at 10,000' AGL
TAF VOTR 161700Z 1618/1724 23010G20KT 6000 FEW018 SCT100 BECMG 1621/1622 27010KT BECMG 1703/1704 27010G20KT TEMPO 1709/1718 SCT018 FEW025TCU/CB BKN100 BECMG 1721/1722 27010KT
Issued Jul-16 @ 17:00 UTC
(3 hours ago)
Valid From Jul-16 @ 18:00 UTC
(2 hours ago)
Valid To Jul-18 @ 00:00 UTC
(-1 days ago)
Jul-16 @ 18:00 - Jul-16 @ 21:00
Wind Visibility
230° at 10 knots
 Gusting to 20 knots
6,003 meters
Clouds
  • Few at 1,800' AGL
  • Scattered at 10,000' AGL
Becoming Jul-16 @ 21:00 - Jul-17 @ 03:00
Wind Visibility
270° at 10 knots 6,003 meters
Clouds
  • Few at 1,800' AGL
  • Scattered at 10,000' AGL
Becoming Jul-17 @ 03:00 - Jul-17 @ 21:00
Wind Visibility
270° at 10 knots
 Gusting to 20 knots
6,003 meters
Clouds
  • Few at 1,800' AGL
  • Scattered at 10,000' AGL
Temporary Jul-17 @ 09:00 - Jul-17 @ 18:00
Clouds
  • Scattered at 1,800' AGL
  • Broken at 10,000' AGL
Becoming Jul-17 @ 21:00 - Jul-18 @ 00:00
Wind Visibility
270° at 10 knots 6,003 meters
Clouds
  • Few at 1,800' AGL
  • Scattered at 10,000' AGL